Windham, New York
Current Conditions -  °F | °C
As of 8:51 AM on Monday 24 Nov 2014 (Local Time) from KALB Reporting Station
Overcast Overcast  
Wind Chill: 57°   Ceiling: 2200
Heat Index: 57°   Visibility: 8mi
Dew Point: 55°   Wind: 7mph
Humidity: 93%   Direction: 170°S
Pressure: 29.59"   Gusts: NA
Location:  42.31°N, 74.25°W
Report Text: KALB 241351Z 17006KT 8SM FEW004 BKN022 OVC047 14/13 A2959 RMK AO2 RAE20DZB20E30 SLP021 OVC V BKN P0002 T01390128
Loading
Personal Weather Stations






























Interactive Weather Map New forecast layout! Learn more

10-Day Weather Forecast

Advertisements
Track Severe Weather on mobile